Time;durP1;ratioP1;P1;durP2;ratioP2;P2;SDS_P1;SDS_P2;PMS_P1;PMS_P2;Temp;Humidity;BMP_temperature;BMP_pressure;BME280_temperature;BME280_humidity;BME280_pressure;Samples;Min_cycle;Max_cycle;Signal;HPM_P1;HPM_P2
2021/09/12 00:00:39;;;;;;;12.60;8.38;;;16.40;99.90;;;;;;5003656;28;20489;-58
2021/09/12 00:03:06;;;;;;;15.73;7.93;;;16.40;99.90;;;;;;5006244;28;20045;-58
2021/09/12 00:05:32;;;;;;;13.93;9.43;;;16.40;99.90;;;;;;5007687;28;20022;-58
2021/09/12 00:07:58;;;;;;;24.48;9.10;;;16.30;99.90;;;;;;5007532;28;20512;-59
2021/09/12 00:10:23;;;;;;;14.02;9.90;;;16.30;99.90;;;;;;5007772;28;20122;-58
2021/09/12 00:12:49;;;;;;;16.17;11.15;;;16.20;99.90;;;;;;4950293;28;20140;-58
2021/09/12 00:15:14;;;;;;;13.05;9.82;;;16.20;99.90;;;;;;5006065;28;20045;-54
2021/09/12 00:17:40;;;;;;;17.40;10.43;;;16.10;99.90;;;;;;5007545;28;20029;-56
2021/09/12 00:20:07;;;;;;;16.77;10.85;;;16.20;99.90;;;;;;5006859;28;20529;-58
2021/09/12 00:22:33;;;;;;;14.48;10.73;;;16.20;99.90;;;;;;5006984;28;20028;-61
2021/09/12 00:24:59;;;;;;;14.32;9.85;;;16.20;99.90;;;;;;5007033;28;20030;-57
2021/09/12 00:27:25;;;;;;;15.93;10.65;;;16.10;99.90;;;;;;5007639;28;20044;-57
2021/09/12 00:29:51;;;;;;;24.42;12.48;;;16.20;99.90;;;;;;5006468;28;20026;-56
2021/09/12 00:32:16;;;;;;;22.10;12.73;;;16.20;99.90;;;;;;5006700;28;20109;-58
2021/09/12 00:34:42;;;;;;;16.05;12.50;;;16.20;99.90;;;;;;5005829;28;20120;-56
2021/09/12 00:37:08;;;;;;;17.30;12.18;;;16.20;99.90;;;;;;5009159;28;20662;-58
2021/09/12 00:39:33;;;;;;;19.20;14.55;;;16.20;99.90;;;;;;5006601;28;20512;-58
2021/09/12 00:41:59;;;;;;;19.45;14.70;;;16.10;99.90;;;;;;5007126;28;20026;-58
2021/09/12 00:44:25;;;;;;;20.58;11.82;;;16.10;99.90;;;;;;5006763;28;20040;-58
2021/09/12 00:46:53;;;;;;;17.25;13.07;;;16.10;99.90;;;;;;5007462;28;20037;-57
2021/09/12 00:49:19;;;;;;;15.95;11.82;;;16.10;99.90;;;;;;5006630;28;20511;-57
2021/09/12 00:51:45;;;;;;;19.98;15.68;;;16.10;99.90;;;;;;5006953;28;20444;-58
2021/09/12 00:54:11;;;;;;;24.15;15.02;;;16.10;99.90;;;;;;5007316;28;20026;-58
2021/09/12 00:56:39;;;;;;;22.83;16.73;;;16.10;99.90;;;;;;5003941;28;20069;-56
2021/09/12 00:59:09;;;;;;;19.98;15.02;;;16.10;99.90;;;;;;5005785;28;20041;-56
2021/09/12 01:01:36;;;;;;;23.67;16.13;;;16.10;99.90;;;;;;5006206;28;20064;-59
2021/09/12 01:04:02;;;;;;;19.85;13.90;;;16.10;99.90;;;;;;5006674;28;20037;-57
2021/09/12 01:06:29;;;;;;;23.98;14.02;;;16.20;99.90;;;;;;5006633;28;20021;-57
2021/09/12 01:08:54;;;;;;;18.05;14.38;;;16.20;99.90;;;;;;5006224;28;20037;-57
2021/09/12 01:11:20;;;;;;;16.85;14.45;;;16.10;99.90;;;;;;5007719;28;20393;-58
2021/09/12 01:13:45;;;;;;;21.77;15.07;;;16.20;99.90;;;;;;5005876;28;20088;-56
2021/09/12 01:16:16;;;;;;;19.83;14.35;;;16.10;99.90;;;;;;5004783;28;20092;-59
2021/09/12 01:18:43;;;;;;;18.15;13.88;;;16.10;99.90;;;;;;5006728;28;20102;-58
2021/09/12 01:21:17;;;;;;;19.08;13.15;;;16.10;99.90;;;;;;4998907;28;20041;-58
2021/09/12 01:23:43;;;;;;;17.83;13.30;;;16.10;99.90;;;;;;5006964;28;20489;-56
2021/09/12 01:26:08;;;;;;;18.38;12.80;;;16.10;99.90;;;;;;5005677;28;20041;-57
2021/09/12 01:28:38;;;;;;;20.63;14.10;;;16.10;99.90;;;;;;5006221;28;20034;-57
2021/09/12 01:31:04;;;;;;;19.88;13.90;;;16.10;99.90;;;;;;5008052;28;20041;-57
2021/09/12 01:33:29;;;;;;;24.15;14.88;;;16.10;99.90;;;;;;5009936;28;20029;-56
2021/09/12 01:35:55;;;;;;;20.75;14.15;;;16.10;99.90;;;;;;5011104;28;20022;-58
2021/09/12 01:38:21;;;;;;;18.13;13.82;;;16.10;99.90;;;;;;5003056;28;20076;-57
2021/09/12 01:40:46;;;;;;;20.67;12.77;;;16.10;99.90;;;;;;5004947;28;20590;-58
2021/09/12 01:43:12;;;;;;;20.20;12.82;;;16.20;99.90;;;;;;5005390;28;20102;-56
2021/09/12 01:45:37;;;;;;;16.35;11.73;;;16.10;99.90;;;;;;5011511;28;20038;-59
2021/09/12 01:48:04;;;;;;;17.75;11.40;;;16.10;99.90;;;;;;4985672;28;20028;-58
2021/09/12 01:50:29;;;;;;;19.50;13.70;;;16.10;99.90;;;;;;5010917;28;20112;-57
2021/09/12 01:52:55;;;;;;;21.38;13.25;;;16.10;99.90;;;;;;5011547;28;20508;-57
2021/09/12 01:55:21;;;;;;;17.67;12.55;;;16.10;99.90;;;;;;5010680;28;20053;-57
2021/09/12 01:57:47;;;;;;;18.77;13.43;;;16.10;99.90;;;;;;5007589;28;20030;-59
2021/09/12 02:00:13;;;;;;;18.33;14.07;;;16.00;99.90;;;;;;5010541;28;20026;-58
2021/09/12 02:02:38;;;;;;;16.58;11.70;;;16.00;99.90;;;;;;5010787;28;20034;-56
2021/09/12 02:05:05;;;;;;;22.92;14.10;;;15.90;99.90;;;;;;5008148;28;20037;-57
2021/09/12 02:07:31;;;;;;;17.70;13.10;;;15.80;99.90;;;;;;5007983;28;20109;-57
2021/09/12 02:09:56;;;;;;;19.85;13.95;;;15.80;99.90;;;;;;4989679;28;20117;-59
2021/09/12 02:12:22;;;;;;;19.33;14.15;;;15.70;99.90;;;;;;5004116;28;20447;-58
2021/09/12 02:14:48;;;;;;;19.83;14.13;;;15.60;99.90;;;;;;5003468;28;20026;-57
2021/09/12 02:17:13;;;;;;;18.15;13.57;;;15.50;99.90;;;;;;5008888;28;20018;-60
2021/09/12 02:19:39;;;;;;;20.40;14.20;;;15.40;99.90;;;;;;5010441;28;20022;-57
2021/09/12 02:22:07;;;;;;;19.30;14.90;;;15.40;99.90;;;;;;4998965;28;20167;-57
2021/09/12 02:24:33;;;;;;;18.38;13.95;;;15.40;99.90;;;;;;5010932;28;20034;-57
2021/09/12 02:26:58;;;;;;;19.38;15.10;;;15.40;99.90;;;;;;5011285;28;20037;-59
2021/09/12 02:29:24;;;;;;;24.02;13.93;;;15.40;99.90;;;;;;5007212;28;20381;-59
2021/09/12 02:31:50;;;;;;;18.00;13.70;;;15.40;99.90;;;;;;5006835;28;20390;-55
2021/09/12 02:34:15;;;;;;;21.15;13.48;;;15.40;99.90;;;;;;5008823;28;20088;-58
2021/09/12 02:36:41;;;;;;;21.17;13.13;;;15.40;99.90;;;;;;5010410;28;20041;-61
2021/09/12 02:39:06;;;;;;;17.00;12.75;;;15.40;99.90;;;;;;5009383;28;20026;-57
2021/09/12 02:41:32;;;;;;;16.00;12.50;;;15.30;99.90;;;;;;5022151;28;20031;-56
2021/09/12 02:43:58;;;;;;;17.42;13.27;;;15.20;99.90;;;;;;5006019;28;20121;-56
2021/09/12 02:46:23;;;;;;;15.18;11.60;;;15.20;99.90;;;;;;5008822;28;20048;-56
2021/09/12 02:48:49;;;;;;;22.20;12.50;;;15.10;99.90;;;;;;5010551;28;20029;-59
2021/09/12 02:51:15;;;;;;;24.65;12.25;;;15.10;99.90;;;;;;5010949;28;20140;-59
2021/09/12 02:53:40;;;;;;;17.25;13.07;;;15.10;99.90;;;;;;5009578;28;20029;-55
2021/09/12 02:56:06;;;;;;;18.50;11.73;;;15.10;99.90;;;;;;5010128;28;20037;-57
2021/09/12 02:58:31;;;;;;;19.38;12.35;;;15.10;99.90;;;;;;5009971;28;20568;-57
2021/09/12 03:00:57;;;;;;;16.65;12.45;;;15.20;99.90;;;;;;5009779;28;20033;-58
2021/09/12 03:03:22;;;;;;;18.25;11.30;;;15.20;99.90;;;;;;5008692;28;20037;-58
2021/09/12 03:05:48;;;;;;;21.50;12.18;;;15.20;99.90;;;;;;5008151;28;20108;-57
2021/09/12 03:08:13;;;;;;;13.65;10.57;;;15.30;99.90;;;;;;5008276;28;20485;-58
2021/09/12 03:10:39;;;;;;;16.02;10.77;;;15.30;99.90;;;;;;5009388;28;20104;-57
2021/09/12 03:13:05;;;;;;;15.73;10.95;;;15.30;99.90;;;;;;5008427;28;20065;-58
2021/09/12 03:15:30;;;;;;;19.08;11.95;;;15.30;99.90;;;;;;4985007;28;20489;-59
2021/09/12 03:17:56;;;;;;;14.80;11.25;;;15.30;99.90;;;;;;5008361;28;20026;-54
2021/09/12 03:20:21;;;;;;;14.70;9.77;;;15.30;99.90;;;;;;5001474;28;20097;-59
2021/09/12 03:22:47;;;;;;;13.70;10.63;;;15.30;99.90;;;;;;5009520;28;20041;-58
2021/09/12 03:25:13;;;;;;;12.52;9.60;;;15.30;99.90;;;;;;5003284;28;20036;-60
2021/09/12 03:27:38;;;;;;;14.02;9.65;;;15.20;99.90;;;;;;5000665;28;20523;-57
2021/09/12 03:30:05;;;;;;;12.85;9.90;;;15.20;99.90;;;;;;5008687;28;20465;-59
2021/09/12 03:32:31;;;;;;;14.00;10.23;;;15.20;99.90;;;;;;5009507;28;20044;-59
2021/09/12 03:34:57;;;;;;;17.48;9.48;;;15.20;99.90;;;;;;5009894;28;20022;-58
2021/09/12 03:37:22;;;;;;;12.85;9.10;;;15.20;99.90;;;;;;5003309;28;20037;-58
2021/09/12 03:39:48;;;;;;;14.88;10.15;;;15.20;99.90;;;;;;5003588;28;20057;-59
2021/09/12 03:42:14;;;;;;;13.95;9.95;;;15.20;99.90;;;;;;5009757;28;20750;-57
2021/09/12 03:44:39;;;;;;;13.57;8.48;;;15.20;99.90;;;;;;5008433;28;20123;-59
2021/09/12 03:47:05;;;;;;;13.98;9.25;;;15.20;99.90;;;;;;5008549;28;20030;-57
2021/09/12 03:49:30;;;;;;;14.50;9.63;;;15.20;99.90;;;;;;5007568;28;20033;-58
2021/09/12 03:51:56;;;;;;;12.98;9.32;;;15.20;99.90;;;;;;5009079;28;20061;-54
2021/09/12 03:54:21;;;;;;;11.60;8.65;;;15.20;99.90;;;;;;5008744;28;20083;-60
2021/09/12 03:56:47;;;;;;;12.25;8.57;;;15.20;99.90;;;;;;5008424;28;20037;-55
2021/09/12 03:59:13;;;;;;;10.50;7.20;;;15.20;99.90;;;;;;4991519;28;20033;-58
2021/09/12 04:01:38;;;;;;;12.27;8.20;;;15.20;99.90;;;;;;5006205;28;20097;-59
2021/09/12 04:04:04;;;;;;;12.85;7.70;;;15.20;99.90;;;;;;5007497;28;20101;-59
2021/09/12 04:06:29;;;;;;;17.98;9.23;;;15.30;99.90;;;;;;5008273;28;20034;-56
2021/09/12 04:08:55;;;;;;;12.73;7.85;;;15.30;99.90;;;;;;5008956;28;20034;-58
2021/09/12 04:11:21;;;;;;;14.40;8.50;;;15.30;99.90;;;;;;5003245;28;20037;-59
2021/09/12 04:13:47;;;;;;;12.75;8.27;;;15.30;99.90;;;;;;5007030;28;20436;-58
2021/09/12 04:16:12;;;;;;;12.85;8.85;;;15.30;99.90;;;;;;5009660;28;20022;-59
2021/09/12 04:18:38;;;;;;;12.95;9.05;;;15.20;99.90;;;;;;5008556;28;20014;-60
2021/09/12 04:21:04;;;;;;;12.05;8.55;;;15.20;99.90;;;;;;5003100;28;20451;-59
2021/09/12 04:23:30;;;;;;;11.07;8.18;;;15.20;99.90;;;;;;5009292;28;20037;-57
2021/09/12 04:25:55;;;;;;;19.25;8.38;;;15.20;99.90;;;;;;5008126;28;20041;-56
2021/09/12 04:28:21;;;;;;;19.27;8.90;;;15.20;99.90;;;;;;5009114;28;20497;-58
2021/09/12 04:30:46;;;;;;;12.50;7.78;;;15.20;99.90;;;;;;5009388;28;20036;-58
2021/09/12 04:33:12;;;;;;;16.10;8.18;;;15.30;99.90;;;;;;4999253;28;20080;-58
2021/09/12 04:35:38;;;;;;;12.82;8.63;;;15.30;99.90;;;;;;5007140;28;20033;-58
2021/09/12 04:38:03;;;;;;;13.32;7.97;;;15.30;99.90;;;;;;5008487;28;20133;-58
2021/09/12 04:40:30;;;;;;;13.80;8.73;;;15.30;99.90;;;;;;5009128;28;20026;-60
2021/09/12 04:42:55;;;;;;;11.38;7.03;;;15.30;99.90;;;;;;5009257;28;20096;-57
2021/09/12 04:45:21;;;;;;;10.35;9.00;;;15.30;99.90;;;;;;5008339;28;20030;-57
2021/09/12 04:47:46;;;;;;;8.00;7.07;;;15.30;99.90;;;;;;5009177;28;20022;-55
2021/09/12 04:50:12;;;;;;;9.20;7.15;;;15.20;99.90;;;;;;5005432;28;20505;-58
2021/09/12 04:52:38;;;;;;;11.93;8.20;;;15.20;99.90;;;;;;5005991;28;20113;-57
2021/09/12 04:55:04;;;;;;;10.82;7.10;;;15.20;99.90;;;;;;5008389;28;20030;-56
2021/09/12 04:57:29;;;;;;;10.88;8.13;;;15.20;99.90;;;;;;5008908;28;20093;-59
2021/09/12 04:59:55;;;;;;;10.50;8.35;;;15.20;99.90;;;;;;5008704;28;20049;-54
2021/09/12 05:02:20;;;;;;;14.52;9.18;;;15.20;99.90;;;;;;5008764;28;20033;-56
2021/09/12 05:04:46;;;;;;;16.88;8.82;;;15.20;99.90;;;;;;5008096;28;20030;-58
2021/09/12 05:07:11;;;;;;;14.10;9.70;;;15.10;99.90;;;;;;5012512;28;20018;-57
2021/09/12 05:09:37;;;;;;;15.23;9.40;;;15.10;99.90;;;;;;5011461;28;20030;-57
2021/09/12 05:12:03;;;;;;;12.82;8.77;;;15.10;99.90;;;;;;5005980;28;20499;-57
2021/09/12 05:14:28;;;;;;;12.98;8.45;;;15.10;99.90;;;;;;5011136;28;20561;-56
2021/09/12 05:16:54;;;;;;;15.55;8.38;;;15.00;99.90;;;;;;5012321;28;20484;-57
2021/09/12 05:19:20;;;;;;;20.20;8.52;;;15.00;99.90;;;;;;5012235;28;20029;-58
2021/09/12 05:21:45;;;;;;;14.68;8.75;;;15.00;99.90;;;;;;5011258;28;20507;-58
2021/09/12 05:24:11;;;;;;;11.27;8.27;;;15.10;99.90;;;;;;5012040;28;20025;-58
2021/09/12 05:26:36;;;;;;;10.70;7.60;;;15.10;99.90;;;;;;5012502;28;20121;-58
2021/09/12 05:29:02;;;;;;;10.93;6.75;;;15.20;99.90;;;;;;5011237;28;20026;-59
2021/09/12 05:31:28;;;;;;;9.63;7.18;;;15.20;99.90;;;;;;5012444;28;20073;-57
2021/09/12 05:33:53;;;;;;;12.48;7.88;;;15.20;99.90;;;;;;5011976;28;20042;-57
2021/09/12 05:36:19;;;;;;;13.07;7.70;;;15.30;99.90;;;;;;4998486;28;20057;-60
2021/09/12 05:38:45;;;;;;;17.70;6.70;;;15.30;99.90;;;;;;5011307;28;20034;-57
2021/09/12 05:41:10;;;;;;;9.65;7.82;;;15.40;99.90;;;;;;5012119;28;20022;-59
2021/09/12 05:43:36;;;;;;;10.15;7.07;;;15.50;99.90;;;;;;5012039;28;20088;-58
2021/09/12 05:46:01;;;;;;;9.27;6.55;;;15.70;99.90;;;;;;5010784;28;20034;-59
2021/09/12 05:48:27;;;;;;;8.20;6.72;;;15.80;99.90;;;;;;5011786;28;20041;-58
2021/09/12 05:50:52;;;;;;;8.82;5.93;;;15.90;99.90;;;;;;5012197;28;20040;-60
2021/09/12 05:53:20;;;;;;;11.25;6.40;;;16.00;99.90;;;;;;5011250;28;20018;-60
2021/09/12 05:55:47;;;;;;;10.55;7.07;;;16.00;99.90;;;;;;5008857;28;20026;-59
2021/09/12 05:58:13;;;;;;;11.23;6.82;;;16.00;99.90;;;;;;5011046;28;20101;-59
2021/09/12 06:00:39;;;;;;;15.60;7.15;;;16.20;99.90;;;;;;5008369;28;20117;-56
2021/09/12 06:03:04;;;;;;;9.38;6.60;;;16.30;99.90;;;;;;5010994;28;20459;-58
2021/09/12 06:05:30;;;;;;;24.40;7.72;;;16.50;99.90;;;;;;5010454;28;20025;-57
2021/09/12 06:07:55;;;;;;;14.70;6.10;;;16.60;99.90;;;;;;5010929;28;20420;-58
2021/09/12 06:10:21;;;;;;;7.85;5.85;;;16.90;99.90;;;;;;5005992;28;20023;-58
2021/09/12 06:12:47;;;;;;;11.75;6.43;;;17.10;99.90;;;;;;5007912;28;20500;-57
2021/09/12 06:15:12;;;;;;;7.68;5.78;;;17.10;99.90;;;;;;4992471;28;20048;-55
2021/09/12 06:17:38;;;;;;;6.72;5.00;;;17.10;99.90;;;;;;5009074;28;20547;-59
2021/09/12 06:20:05;;;;;;;13.45;5.88;;;17.20;99.90;;;;;;5010964;28;20022;-59
2021/09/12 06:22:30;;;;;;;9.63;5.47;;;17.20;99.90;;;;;;5011575;28;20038;-59
2021/09/12 06:24:56;;;;;;;5.95;5.20;;;17.10;99.90;;;;;;5010770;28;20095;-58
2021/09/12 06:27:21;;;;;;;9.18;6.05;;;17.20;99.90;;;;;;5010191;28;20029;-58
2021/09/12 06:29:47;;;;;;;7.65;4.85;;;17.20;99.90;;;;;;5008893;28;20034;-60
2021/09/12 06:32:13;;;;;;;13.07;5.60;;;17.10;99.90;;;;;;5006724;28;20026;-60
2021/09/12 06:34:38;;;;;;;10.00;5.88;;;17.10;99.90;;;;;;5010223;28;20030;-59
2021/09/12 06:37:04;;;;;;;9.77;6.53;;;17.10;99.90;;;;;;5009747;28;20025;-59
2021/09/12 06:39:30;;;;;;;10.55;5.80;;;17.10;99.90;;;;;;5010653;28;20370;-56
2021/09/12 06:41:56;;;;;;;10.68;6.38;;;17.10;99.90;;;;;;5001394;28;20077;-59
2021/09/12 06:44:21;;;;;;;8.27;5.72;;;17.00;99.90;;;;;;5010599;28;20548;-57
2021/09/12 06:46:47;;;;;;;7.85;7.03;;;17.00;99.90;;;;;;5009579;28;20033;-58
2021/09/12 06:49:12;;;;;;;6.43;5.53;;;17.00;99.90;;;;;;5010620;28;20033;-57
2021/09/12 06:51:38;;;;;;;9.10;6.25;;;17.00;99.90;;;;;;5010868;28;20401;-58
2021/09/12 06:54:03;;;;;;;8.45;7.55;;;17.00;99.90;;;;;;5002024;28;20030;-58
2021/09/12 06:56:29;;;;;;;10.63;6.90;;;17.10;99.90;;;;;;5005464;28;20029;-58
2021/09/12 06:58:55;;;;;;;14.25;6.57;;;17.20;99.90;;;;;;5008420;28;20038;-58
2021/09/12 07:01:20;;;;;;;11.65;6.55;;;17.30;99.90;;;;;;5010677;28;20026;-58
2021/09/12 07:03:46;;;;;;;10.57;6.40;;;17.30;99.90;;;;;;5010687;28;20033;-59
2021/09/12 07:06:11;;;;;;;15.82;6.80;;;17.30;99.90;;;;;;5009333;28;20032;-58
2021/09/12 07:08:37;;;;;;;10.00;6.45;;;17.40;99.90;;;;;;5009649;28;20029;-58
2021/09/12 07:11:04;;;;;;;9.23;6.85;;;17.50;99.90;;;;;;5009537;28;20030;-59
2021/09/12 07:13:29;;;;;;;9.80;6.38;;;17.50;99.90;;;;;;5009588;28;20109;-56
2021/09/12 07:15:55;;;;;;;9.05;6.45;;;17.50;99.90;;;;;;5010102;28;20128;-57
2021/09/12 07:18:20;;;;;;;10.82;7.65;;;17.60;99.90;;;;;;5008836;28;20026;-59
2021/09/12 07:20:46;;;;;;;12.43;6.72;;;17.70;99.90;;;;;;5010278;28;20088;-57
2021/09/12 07:23:11;;;;;;;8.52;6.20;;;17.90;99.90;;;;;;5005043;28;20121;-58
2021/09/12 07:25:37;;;;;;;7.80;6.05;;;17.90;99.90;;;;;;5009277;28;20038;-56
2021/09/12 07:28:03;;;;;;;8.43;6.70;;;18.00;99.90;;;;;;5008436;28;20034;-58
2021/09/12 07:30:29;;;;;;;11.27;5.88;;;17.90;99.90;;;;;;5008111;28;20087;-58
2021/09/12 07:32:54;;;;;;;7.88;5.90;;;18.00;99.90;;;;;;5006291;28;20087;-57
2021/09/12 07:35:20;;;;;;;11.40;6.75;;;17.90;99.90;;;;;;5008955;28;20440;-60
2021/09/12 07:37:45;;;;;;;7.85;6.13;;;17.90;99.90;;;;;;5009686;28;20037;-59
2021/09/12 07:40:11;;;;;;;10.65;7.20;;;18.00;99.90;;;;;;5009559;28;20053;-60
2021/09/12 07:42:37;;;;;;;7.95;6.25;;;17.90;99.90;;;;;;5008174;28;20083;-59
2021/09/12 07:45:03;;;;;;;9.70;7.00;;;17.90;99.90;;;;;;4999873;28;20593;-59
2021/09/12 07:47:29;;;;;;;19.17;7.97;;;18.00;99.90;;;;;;5010061;28;20397;-57
2021/09/12 07:49:55;;;;;;;14.35;8.00;;;17.90;99.90;;;;;;4995528;28;20022;-58
2021/09/12 07:52:21;;;;;;;13.68;9.00;;;18.00;99.90;;;;;;5005058;28;20046;-59
2021/09/12 07:54:47;;;;;;;11.77;7.45;;;18.20;99.90;;;;;;5009519;28;20030;-57
2021/09/12 07:57:12;;;;;;;16.58;8.73;;;18.30;99.90;;;;;;5008508;28;20152;-59
2021/09/12 07:59:38;;;;;;;13.75;7.70;;;18.20;99.90;;;;;;5006895;28;20049;-55
2021/09/12 08:02:03;;;;;;;13.10;8.68;;;18.30;99.90;;;;;;5004986;28;20103;-58
2021/09/12 08:04:29;;;;;;;13.93;7.25;;;18.30;99.90;;;;;;5008884;28;20108;-59
2021/09/12 08:06:54;;;;;;;13.73;8.30;;;18.30;99.90;;;;;;5008731;28;20057;-57
2021/09/12 08:09:20;;;;;;;15.07;8.90;;;18.40;99.90;;;;;;5008970;28;20029;-58
2021/09/12 08:11:45;;;;;;;11.82;8.00;;;18.60;99.90;;;;;;5007518;28;20026;-58
2021/09/12 08:14:11;;;;;;;12.30;7.55;;;18.70;99.90;;;;;;5008937;28;20030;-58
2021/09/12 08:16:37;;;;;;;8.75;7.15;;;18.80;99.90;;;;;;5008787;28;20076;-59
2021/09/12 08:19:02;;;;;;;13.45;7.72;;;18.80;99.90;;;;;;5001956;28;20053;-60
2021/09/12 08:21:28;;;;;;;9.52;6.13;;;18.80;99.90;;;;;;5003000;28;20042;-59
2021/09/12 08:23:53;;;;;;;10.90;6.70;;;19.10;99.90;;;;;;5008124;28;20044;-59
2021/09/12 08:26:21;;;;;;;11.05;6.30;;;19.40;99.90;;;;;;5008648;28;20493;-57
2021/09/12 08:28:47;;;;;;;10.15;5.90;;;19.80;99.90;;;;;;5005630;28;20117;-59
2021/09/12 08:31:12;;;;;;;10.73;5.50;;;19.70;99.90;;;;;;5009864;28;20117;-59
2021/09/12 08:33:38;;;;;;;9.52;5.13;;;20.10;99.90;;;;;;5007673;28;20022;-59
2021/09/12 08:36:03;;;;;;;10.55;5.05;;;21.10;99.90;;;;;;5008371;28;20029;-58
2021/09/12 08:38:29;;;;;;;9.95;4.93;;;21.80;99.90;;;;;;5008355;28;20022;-58
2021/09/12 08:40:58;;;;;;;9.15;4.72;;;22.30;99.90;;;;;;5007864;28;20557;-58
2021/09/12 08:43:24;;;;;;;14.00;4.47;;;22.50;99.90;;;;;;5012016;28;20034;-57
2021/09/12 08:45:50;;;;;;;8.82;3.97;;;22.60;99.70;;;;;;5003525;28;20417;-58
2021/09/12 08:48:16;;;;;;;8.57;3.90;;;23.40;98.70;;;;;;5012064;28;20033;-56
2021/09/12 08:50:42;;;;;;;7.78;3.53;;;23.40;98.90;;;;;;5012036;28;20985;-61
2021/09/12 08:53:08;;;;;;;6.93;3.60;;;23.50;98.60;;;;;;5010301;28;20021;-58
2021/09/12 08:55:33;;;;;;;10.05;3.95;;;24.00;97.50;;;;;;5008432;28;20037;-57
2021/09/12 08:58:02;;;;;;;8.90;4.32;;;23.30;96.60;;;;;;5010368;28;20033;-57
2021/09/12 09:00:27;;;;;;;11.93;4.30;;;23.10;97.90;;;;;;4993882;28;20034;-58
2021/09/12 09:03:02;;;;;;;5.05;3.20;;;22.70;98.10;;;;;;5011444;28;20555;-56
2021/09/12 09:05:40;;;;;;;7.45;4.28;;;22.40;98.30;;;;;;5009808;28;20021;-57
2021/09/12 09:08:14;;;;;;;7.60;3.92;;;21.90;99.50;;;;;;5009558;28;20049;-56
2021/09/12 09:10:48;;;;;;;6.32;3.33;;;21.50;99.90;;;;;;5005853;28;20504;-57
2021/09/12 09:13:36;;;;;;;10.57;3.88;;;21.50;99.90;;;;;;5011307;28;20041;-58
2021/09/12 09:16:04;;;;;;;5.35;3.08;;;22.00;99.90;;;;;;5012192;28;20025;-56
2021/09/12 09:18:40;;;;;;;8.07;2.78;;;22.90;99.20;;;;;;5010179;28;20025;-57
2021/09/12 09:21:27;;;;;;;8.00;2.00;;;23.70;95.10;;;;;;5009040;28;20083;-58
2021/09/12 09:24:06;;;;;;;4.03;1.67;;;23.70;95.70;;;;;;5009450;28;20485;-57
2021/09/12 09:26:36;;;;;;;4.60;2.70;;;23.50;95.20;;;;;;5011954;28;20058;-58
2021/09/12 09:29:01;;;;;;;11.23;2.78;;;23.30;96.10;;;;;;5010454;28;20058;-58
2021/09/12 09:31:27;;;;;;;7.43;2.75;;;22.90;95.60;;;;;;5011345;28;20076;-58
2021/09/12 09:33:52;;;;;;;7.90;3.38;;;22.10;96.70;;;;;;5010338;28;20030;-57
2021/09/12 09:36:19;;;;;;;10.60;3.28;;;21.60;98.00;;;;;;5011593;28;20033;-59
2021/09/12 09:38:47;;;;;;;11.65;3.67;;;21.40;98.50;;;;;;5011170;28;20053;-57
2021/09/12 09:41:18;;;;;;;7.45;3.30;;;21.50;99.60;;;;;;5011541;28;20837;-59
2021/09/12 09:43:47;;;;;;;7.90;3.13;;;21.60;98.70;;;;;;5006410;28;20091;-57
2021/09/12 09:46:33;;;;;;;11.88;3.30;;;21.50;98.90;;;;;;5007377;28;20029;-58
2021/09/12 09:49:01;;;;;;;10.52;3.83;;;21.60;98.10;;;;;;5009125;28;20037;-59
2021/09/12 09:51:27;;;;;;;7.43;3.65;;;21.80;98.70;;;;;;5002947;28;20018;-56
2021/09/12 09:53:55;;;;;;;9.02;3.75;;;21.80;98.50;;;;;;5007018;28;20034;-57
2021/09/12 09:56:22;;;;;;;9.82;4.35;;;21.90;98.30;;;;;;5011602;28;20029;-57
2021/09/12 09:58:49;;;;;;;7.88;4.50;;;22.00;98.40;;;;;;5004575;28;20026;-59
2021/09/12 10:01:15;;;;;;;7.85;4.55;;;22.30;98.20;;;;;;5009744;28;20497;-59
2021/09/12 10:03:42;;;;;;;5.53;3.75;;;22.00;98.20;;;;;;4994482;28;20050;-59
2021/09/12 10:06:08;;;;;;;14.32;5.45;;;22.20;98.50;;;;;;5008859;28;20779;-59
2021/09/12 10:08:34;;;;;;;13.93;4.85;;;22.60;98.40;;;;;;5010144;28;20026;-57
2021/09/12 10:11:00;;;;;;;8.90;4.90;;;22.70;97.20;;;;;;5007079;28;20032;-57
2021/09/12 10:13:27;;;;;;;7.50;4.97;;;22.70;97.80;;;;;;5009195;28;20025;-58
2021/09/12 10:15:56;;;;;;;10.80;4.72;;;23.50;97.30;;;;;;5007410;28;20026;-57
2021/09/12 10:18:28;;;;;;;10.65;4.55;;;23.60;96.70;;;;;;5011269;28;20694;-59
2021/09/12 10:20:55;;;;;;;10.20;5.80;;;23.50;96.20;;;;;;5006531;28;20041;-59
2021/09/12 10:23:25;;;;;;;19.33;9.75;;;23.40;96.30;;;;;;5007880;28;20022;-57
2021/09/12 10:26:00;;;;;;;12.23;5.95;;;23.40;95.30;;;;;;5009943;28;20077;-59
2021/09/12 10:28:32;;;;;;;9.48;4.22;;;23.40;95.70;;;;;;5010737;28;20013;-59
2021/09/12 10:30:59;;;;;;;8.70;4.38;;;22.90;96.30;;;;;;5003634;28;20029;-58
2021/09/12 10:33:27;;;;;;;5.72;3.13;;;22.90;97.00;;;;;;5010990;28;20033;-59
2021/09/12 10:35:59;;;;;;;7.97;3.28;;;22.60;96.50;;;;;;5004405;28;20490;-57
2021/09/12 10:38:32;;;;;;;8.88;3.47;;;22.70;96.70;;;;;;5010547;28;20026;-59
2021/09/12 10:41:03;;;;;;;4.68;2.92;;;22.60;96.40;;;;;;5004873;28;20033;-58
2021/09/12 10:43:30;;;;;;;5.38;2.85;;;22.60;96.60;;;;;;5005420;28;20030;-59
2021/09/12 10:46:01;;;;;;;4.82;2.60;;;22.70;95.70;;;;;;5008485;28;20030;-59
2021/09/12 10:48:28;;;;;;;8.15;2.30;;;22.90;96.60;;;;;;5010928;28;20457;-59
2021/09/12 10:50:54;;;;;;;5.18;3.00;;;22.70;96.60;;;;;;5007178;28;20030;-59
2021/09/12 10:53:48;;;;;;;6.82;3.38;;;22.70;95.40;;;;;;5010284;28;20397;-59
2021/09/12 10:56:31;;;;;;;6.05;2.92;;;22.80;95.80;;;;;;5005211;28;20025;-59
2021/09/12 10:58:59;;;;;;;7.05;2.85;;;22.70;95.10;;;;;;5010469;28;20053;-58
2021/09/12 11:01:40;;;;;;;5.65;3.30;;;22.80;95.30;;;;;;5008793;28;20358;-58
2021/09/12 11:04:06;;;;;;;6.90;3.40;;;22.60;95.60;;;;;;4979841;28;20121;-55
2021/09/12 11:06:35;;;;;;;5.57;2.97;;;22.60;95.90;;;;;;5009250;28;20104;-57
2021/09/12 11:09:02;;;;;;;7.10;2.83;;;22.40;95.40;;;;;;5010610;28;20029;-60
2021/09/12 11:11:28;;;;;;;6.78;2.75;;;22.00;96.30;;;;;;5002299;28;20038;-55
2021/09/12 11:13:56;;;;;;;7.00;2.53;;;22.20;96.90;;;;;;5010588;28;20022;-54
2021/09/12 11:16:23;;;;;;;5.63;2.30;;;22.50;95.90;;;;;;5009459;28;20105;-57
2021/09/12 11:19:03;;;;;;;7.78;3.00;;;22.60;96.30;;;;;;5010113;28;20068;-57
2021/09/12 11:21:36;;;;;;;5.95;2.78;;;22.70;95.70;;;;;;5005246;28;20145;-57
2021/09/12 11:24:08;;;;;;;10.98;3.00;;;23.10;96.40;;;;;;5007955;28;20026;-57
2021/09/12 11:26:43;;;;;;;6.75;2.80;;;22.90;94.80;;;;;;5008743;28;20052;-56
2021/09/12 11:29:12;;;;;;;8.82;2.85;;;22.80;94.30;;;;;;5006741;28;20497;-58
2021/09/12 11:31:38;;;;;;;8.00;2.92;;;22.60;94.60;;;;;;5001110;28;20029;-58
2021/09/12 11:34:04;;;;;;;4.85;2.47;;;22.80;95.20;;;;;;5008707;28;20440;-57
2021/09/12 11:36:42;;;;;;;5.97;2.83;;;22.90;94.40;;;;;;5002427;28;20113;-57
2021/09/12 11:39:07;;;;;;;8.48;2.08;;;22.70;94.40;;;;;;5001778;28;20026;-56
2021/09/12 11:41:33;;;;;;;6.35;2.50;;;22.60;95.00;;;;;;5004206;28;20114;-59
2021/09/12 11:44:00;;;;;;;3.65;2.40;;;22.30;94.30;;;;;;5007993;28;20038;-58
2021/09/12 11:46:27;;;;;;;4.53;2.50;;;22.50;95.00;;;;;;5007430;28;20096;-59
2021/09/12 11:48:59;;;;;;;6.45;2.65;;;22.50;94.90;;;;;;5002195;28;20050;-57
2021/09/12 11:51:38;;;;;;;8.75;2.50;;;22.60;95.20;;;;;;5006624;28;20094;-59
2021/09/12 11:54:20;;;;;;;4.80;2.30;;;22.90;95.40;;;;;;4995746;28;20049;-59
2021/09/12 11:57:01;;;;;;;4.78;2.78;;;23.00;94.10;;;;;;5008464;28;20489;-59
2021/09/12 11:59:29;;;;;;;4.97;2.60;;;22.90;93.40;;;;;;4998328;28;20023;-54
2021/09/12 12:01:57;;;;;;;7.13;2.45;;;22.80;94.20;;;;;;5005736;28;20041;-59
2021/09/12 12:04:23;;;;;;;5.13;2.35;;;22.90;94.50;;;;;;4986471;28;20100;-57
2021/09/12 12:06:51;;;;;;;11.02;2.50;;;22.80;93.80;;;;;;5001797;28;20125;-59
2021/09/12 12:09:25;;;;;;;5.63;2.53;;;22.70;94.70;;;;;;5000620;28;20054;-59
2021/09/12 12:11:51;;;;;;;3.83;2.22;;;22.60;94.90;;;;;;5006735;28;20045;-56
2021/09/12 12:14:18;;;;;;;3.95;2.13;;;22.40;94.60;;;;;;5002746;28;20037;-59
2021/09/12 12:16:44;;;;;;;7.43;2.42;;;22.40;94.70;;;;;;4999283;28;20109;-58
2021/09/12 12:19:11;;;;;;;10.85;2.60;;;22.30;94.60;;;;;;4997783;28;20714;-58
2021/09/12 12:21:40;;;;;;;5.45;2.40;;;22.20;93.90;;;;;;4998762;28;20093;-58
2021/09/12 12:24:14;;;;;;;6.25;2.00;;;22.20;95.10;;;;;;5008603;28;20049;-57
2021/09/12 12:26:52;;;;;;;5.80;2.13;;;22.30;95.10;;;;;;5009433;28;20030;-58
2021/09/12 12:29:30;;;;;;;7.35;2.00;;;22.50;94.50;;;;;;5009552;28;20026;-57
2021/09/12 12:31:59;;;;;;;7.05;2.38;;;22.70;94.70;;;;;;5009218;28;20056;-58
2021/09/12 12:34:37;;;;;;;3.88;1.73;;;22.50;93.90;;;;;;4989117;28;20040;-55
2021/09/12 12:37:03;;;;;;;5.63;2.17;;;22.30;94.70;;;;;;5009115;28;20101;-59